Weather at Fagerhult Airfield

Public forecast

Using degrees Celsius for public forecast. Weather courtesy of forecast.io.

Closest aviation weather report (METAR) to Fagerhult Airfield

Closest report is Ljungbyhed Airfield, 20.2 nm (37.5 km) SSW.

2024/05/20 06:20 (retrieved 28 minutes ago)

ESTL 200620Z 00000KT CAVOK 17/11 Q1014

Closest aviation forecast (TAF) to Fagerhult Airfield

Closest forecast is Malmö Sturup Airport, 50.6 nm (93.6 km) S.

2024/05/20 06:34 (retrieved 14 minutes ago)

TAF ESMS 200505Z 2006/2106 VRB02KT CAVOK BECMG 2006/2009 07010KT TEMPO 2010/2015 FEW050CB